Time;durP1;ratioP1;P1;durP2;ratioP2;P2;SDS_P1;SDS_P2;PMS_P1;PMS_P2;Temp;Humidity;BMP_temperature;BMP_pressure;BME280_temperature;BME280_humidity;BME280_pressure;Samples;Min_cycle;Max_cycle;Signal;HPM_P1;HPM_P2
2022/07/03 00:02:15;;;;;;;;;;;;;;;15.89;59.38;101239.83;1716122;82;20271;-74
2022/07/03 00:04:41;;;;;;;;;;;;;;;15.85;59.46;101239.87;1717746;83;20190;-74
2022/07/03 00:07:07;;;;;;;;;;;;;;;15.81;59.62;101241.25;1717868;83;20231;-74
2022/07/03 00:09:33;;;;;;;;;;;;;;;15.78;59.69;101241.62;1714569;83;20181;-74
2022/07/03 00:11:59;;;;;;;;;;;;;;;15.77;59.81;101243.97;1709859;83;21853;-74
2022/07/03 00:14:25;;;;;;;;;;;;;;;15.78;59.91;101241.62;1714130;83;20219;-74
2022/07/03 00:16:51;;;;;;;;;;;;;;;15.76;60.02;101238.30;1713780;83;20207;-75
2022/07/03 00:19:17;;;;;;;;;;;;;;;15.75;60.09;101247.37;1710719;83;20144;-74
2022/07/03 00:21:49;;;;;;;;;;;;;;;15.73;60.21;101245.35;1719785;83;20870;-74
2022/07/03 00:24:28;;;;;;;;;;;;;;;15.71;60.32;101243.37;1716683;83;21935;-74
2022/07/03 00:26:54;;;;;;;;;;;;;;;15.69;60.40;101236.01;1716472;83;20240;-74
2022/07/03 00:29:21;;;;;;;;;;;;;;;15.71;60.50;101233.95;1715279;83;20203;-74
2022/07/03 00:31:48;;;;;;;;;;;;;;;15.73;60.61;101242.16;1709527;83;20165;-74
2022/07/03 00:34:15;;;;;;;;;;;;;;;15.72;60.70;101239.67;1719822;83;20173;-74
2022/07/03 00:36:41;;;;;;;;;;;;;;;15.71;60.81;101237.99;1717490;83;21144;-74
2022/07/03 00:39:07;;;;;;;;;;;;;;;15.68;60.92;101238.36;1708007;83;20306;-74
2022/07/03 00:41:34;;;;;;;;;;;;;;;15.67;61.01;101242.06;1712606;83;20352;-74
2022/07/03 00:44:02;;;;;;;;;;;;;;;15.64;61.11;101243.77;1703833;83;20485;-74
2022/07/03 00:46:28;;;;;;;;;;;;;;;15.59;61.20;101242.96;1705740;83;20495;-74
2022/07/03 00:48:54;;;;;;;;;;;;;;;15.56;61.32;101238.45;1706495;83;21118;-74
2022/07/03 00:51:24;;;;;;;;;;;;;;;15.53;61.40;101237.48;1701064;83;20161;-74
2022/07/03 00:53:52;;;;;;;;;;;;;;;15.52;61.49;101237.17;1703299;83;20199;-74
2022/07/03 00:56:21;;;;;;;;;;;;;;;15.52;61.56;101232.61;1702038;83;20220;-74
2022/07/03 00:58:47;;;;;;;;;;;;;;;15.49;61.65;101235.16;1698749;83;20435;-74
2022/07/03 01:01:16;;;;;;;;;;;;;;;15.47;61.74;101229.11;1717868;83;21045;-74
2022/07/03 01:03:43;;;;;;;;;;;;;;;15.46;61.84;101227.42;1711434;83;20196;-74
2022/07/03 01:06:10;;;;;;;;;;;;;;;15.44;61.92;101217.88;1704835;83;20224;-74
2022/07/03 01:08:48;;;;;;;;;;;;;;;15.42;62.02;101223.42;1706163;83;20156;-75
2022/07/03 01:11:29;;;;;;;;;;;;;;;15.39;62.10;101214.39;1718352;83;20146;-74
2022/07/03 01:14:05;;;;;;;;;;;;;;;15.37;62.22;101214.25;1719033;83;21086;-74
2022/07/03 01:16:46;;;;;;;;;;;;;;;15.33;62.29;101211.08;1716686;83;20464;-74
2022/07/03 01:19:31;;;;;;;;;;;;;;;15.31;62.40;101205.54;1670470;83;20480;-74
2022/07/03 01:22:13;;;;;;;;;;;;;;;15.27;62.49;101195.66;1698570;83;20449;-74
2022/07/03 01:24:59;;;;;;;;;;;;;;;15.22;62.58;101196.73;1706591;83;20172;-74
2022/07/03 01:27:47;;;;;;;;;;;;;;;15.20;62.70;101201.97;1703966;83;22063;-74
2022/07/03 01:30:13;;;;;;;;;;;;;;;15.14;62.80;101189.23;1705008;83;20159;-74
2022/07/03 01:32:44;;;;;;;;;;;;;;;15.10;62.94;101191.44;1704024;82;20165;-74
2022/07/03 01:35:20;;;;;;;;;;;;;;;15.05;63.01;101189.81;1718014;83;20168;-75
2022/07/03 01:37:45;;;;;;;;;;;;;;;15.00;63.13;101190.84;1703617;83;20208;-74
2022/07/03 01:40:11;;;;;;;;;;;;;;;14.98;63.25;101187.52;1714966;83;21196;-75
2022/07/03 01:42:40;;;;;;;;;;;;;;;14.96;63.31;101193.56;1717726;83;20811;-75
2022/07/03 01:45:07;;;;;;;;;;;;;;;14.91;63.42;101191.94;1714374;82;20177;-75
2022/07/03 01:47:33;;;;;;;;;;;;;;;14.89;63.50;101191.26;1705897;83;20170;-74
2022/07/03 01:49:58;;;;;;;;;;;;;;;14.87;63.64;101189.27;1713805;83;20484;-74
2022/07/03 01:52:25;;;;;;;;;;;;;;;14.83;63.71;101188.79;1722879;83;21023;-75
2022/07/03 01:54:50;;;;;;;;;;;;;;;14.82;63.77;101188.95;1722021;83;20173;-75
2022/07/03 01:57:16;;;;;;;;;;;;;;;14.80;63.86;101189.66;1710027;82;20262;-75
2022/07/03 01:59:42;;;;;;;;;;;;;;;14.77;63.95;101187.33;1704585;83;20163;-75
2022/07/03 02:02:22;;;;;;;;;;;;;;;14.74;64.06;101188.50;1723465;83;20195;-75
2022/07/03 02:05:00;;;;;;;;;;;;;;;14.71;64.12;101189.36;1707141;83;21282;-75
2022/07/03 02:07:36;;;;;;;;;;;;;;;14.68;64.24;101182.50;1710711;83;20169;-75
2022/07/03 02:10:06;;;;;;;;;;;;;;;14.67;64.34;101178.67;1703987;83;20181;-74
2022/07/03 02:12:41;;;;;;;;;;;;;;;14.66;64.44;101179.67;1709764;83;20464;-74
2022/07/03 02:15:08;;;;;;;;;;;;;;;14.64;64.51;101184.37;1710048;83;20150;-74
2022/07/03 02:17:37;;;;;;;;;;;;;;;14.62;64.65;101179.70;1701553;83;21154;-74
2022/07/03 02:20:07;;;;;;;;;;;;;;;14.61;64.72;101181.53;1685877;83;20145;-74
2022/07/03 02:22:38;;;;;;;;;;;;;;;14.61;64.84;101190.09;1712522;83;20150;-74
2022/07/03 02:25:09;;;;;;;;;;;;;;;14.62;64.90;101183.72;1700237;83;20162;-74
2022/07/03 02:27:43;;;;;;;;;;;;;;;14.64;65.00;101185.71;1717424;83;20156;-74
2022/07/03 02:30:10;;;;;;;;;;;;;;;14.64;65.08;101180.34;1695947;83;20702;-75
2022/07/03 02:32:39;;;;;;;;;;;;;;;14.66;65.17;101182.36;1708661;83;20155;-75
2022/07/03 02:35:06;;;;;;;;;;;;;;;14.66;65.23;101185.05;1708689;83;20177;-75
2022/07/03 02:37:34;;;;;;;;;;;;;;;14.64;65.29;101177.16;1705828;83;20184;-74
2022/07/03 02:40:08;;;;;;;;;;;;;;;14.66;65.34;101178.33;1707461;83;20180;-74
2022/07/03 02:42:46;;;;;;;;;;;;;;;14.64;65.40;101179.00;1705708;83;20987;-74
2022/07/03 02:45:12;;;;;;;;;;;;;;;14.61;65.50;101178.85;1702051;83;20482;-74
2022/07/03 02:47:45;;;;;;;;;;;;;;;14.60;65.57;101177.70;1710409;83;20234;-74
2022/07/03 02:50:12;;;;;;;;;;;;;;;14.60;65.64;101180.39;1705978;83;20451;-74
2022/07/03 02:52:43;;;;;;;;;;;;;;;14.60;65.72;101180.39;1712193;83;20172;-74
2022/07/03 02:55:12;;;;;;;;;;;;;;;14.59;65.79;101180.89;1712042;83;21127;-74
2022/07/03 02:57:39;;;;;;;;;;;;;;;14.58;65.87;101175.69;1689961;83;20189;-74
2022/07/03 03:00:10;;;;;;;;;;;;;;;14.59;65.95;101171.50;1709186;83;20460;-74
2022/07/03 03:02:55;;;;;;;;;;;;;;;14.61;66.04;101173.98;1714664;83;20160;-74
2022/07/03 03:05:37;;;;;;;;;;;;;;;14.65;66.10;101171.28;1707483;83;20181;-75
2022/07/03 03:08:29;;;;;;;;;;;;;;;14.68;66.16;101172.27;1709080;83;21682;-75
2022/07/03 03:10:59;;;;;;;;;;;;;;;14.68;66.23;101174.95;1701771;83;20471;-74
2022/07/03 03:13:25;;;;;;;;;;;;;;;14.67;66.33;101173.30;1706597;83;20161;-74
2022/07/03 03:16:00;;;;;;;;;;;;;;;14.66;66.43;101173.80;1686485;83;20456;-74
2022/07/03 03:18:27;;;;;;;;;;;;;;;14.67;66.52;101174.64;1694050;83;20161;-74
2022/07/03 03:20:55;;;;;;;;;;;;;;;14.72;66.65;101166.88;1716286;83;21174;-74
2022/07/03 03:23:39;;;;;;;;;;;;;;;14.79;66.73;101170.52;1710054;83;20442;-74
2022/07/03 03:26:05;;;;;;;;;;;;;;;14.87;66.79;101169.13;1706830;83;20177;-74
2022/07/03 03:28:31;;;;;;;;;;;;;;;14.95;66.88;101162.36;1714906;83;20215;-74
2022/07/03 03:30:57;;;;;;;;;;;;;;;15.03;66.95;101155.56;1709790;83;20283;-74
2022/07/03 03:33:23;;;;;;;;;;;;;;;15.65;67.48;101156.71;1700576;83;21133;-74
2022/07/03 03:35:49;;;;;;;;;;;;;;;16.90;67.56;101161.81;1703927;83;20258;-74
2022/07/03 03:38:14;;;;;;;;;;;;;;;17.95;67.03;101158.09;1707886;83;20214;-75
2022/07/03 03:40:40;;;;;;;;;;;;;;;18.85;66.40;101151.08;1707711;83;20219;-75
2022/07/03 03:43:06;;;;;;;;;;;;;;;19.78;65.95;101150.55;1699445;83;20302;-75
2022/07/03 03:45:32;;;;;;;;;;;;;;;20.69;65.26;101148.56;1703429;83;21166;-76
2022/07/03 03:47:58;;;;;;;;;;;;;;;21.49;64.54;101151.84;1711719;83;20223;-75
2022/07/03 03:50:24;;;;;;;;;;;;;;;22.25;63.85;101152.28;1709695;83;20290;-75
2022/07/03 03:52:50;;;;;;;;;;;;;;;23.01;62.92;101145.41;1707031;83;20181;-75
2022/07/03 03:55:16;;;;;;;;;;;;;;;23.15;62.11;101142.21;1709262;83;20159;-75
2022/07/03 03:57:42;;;;;;;;;;;;;;;23.39;61.49;101141.20;1708408;83;22329;-76
2022/07/03 04:00:08;;;;;;;;;;;;;;;23.90;60.70;101138.28;1709538;83;20199;-76
2022/07/03 04:02:34;;;;;;;;;;;;;;;24.29;59.86;101140.23;1711760;83;20214;-75
2022/07/03 04:05:00;;;;;;;;;;;;;;;24.80;59.02;101138.49;1714346;83;21051;-75
2022/07/03 04:07:26;;;;;;;;;;;;;;;24.83;58.22;101136.13;1704802;83;20204;-76
2022/07/03 04:09:52;;;;;;;;;;;;;;;25.39;57.48;101129.40;1707307;83;21830;-76
2022/07/03 04:12:18;;;;;;;;;;;;;;;26.00;56.70;101131.94;1708596;83;20214;-76
2022/07/03 04:14:44;;;;;;;;;;;;;;;26.26;55.83;101131.22;1714464;83;20215;-75
2022/07/03 04:17:09;;;;;;;;;;;;;;;26.62;54.98;101128.87;1702482;83;20704;-76
2022/07/03 04:19:35;;;;;;;;;;;;;;;26.97;54.10;101131.16;1708182;83;20251;-75
2022/07/03 04:22:01;;;;;;;;;;;;;;;26.92;53.19;101125.63;1695239;83;21824;-76
2022/07/03 04:24:27;;;;;;;;;;;;;;;27.19;52.49;101130.53;1699521;83;20792;-75
2022/07/03 04:26:53;;;;;;;;;;;;;;;26.80;51.76;101123.04;1693828;83;20219;-76
2022/07/03 04:29:19;;;;;;;;;;;;;;;26.96;51.18;101117.17;1714613;83;20434;-76
2022/07/03 04:31:45;;;;;;;;;;;;;;;26.92;50.21;101118.23;1706321;83;21054;-76
2022/07/03 04:34:12;;;;;;;;;;;;;;;26.33;49.70;101123.64;1715370;83;21843;-76
2022/07/03 04:36:38;;;;;;;;;;;;;;;25.83;50.14;101129.27;1714054;83;20164;-76
2022/07/03 04:39:04;;;;;;;;;;;;;;;25.35;50.55;101124.98;1705487;83;20855;-76
2022/07/03 04:41:30;;;;;;;;;;;;;;;24.83;50.80;101127.12;1705789;83;21265;-76
2022/07/03 04:43:55;;;;;;;;;;;;;;;24.65;51.14;101128.13;1707863;83;20184;-76
2022/07/03 04:46:22;;;;;;;;;;;;;;;24.38;51.31;101135.25;1705028;83;21895;-76
2022/07/03 04:48:49;;;;;;;;;;;;;;;24.29;51.47;101133.95;1709803;83;20172;-76
2022/07/03 04:51:15;;;;;;;;;;;;;;;24.29;51.53;101141.61;1709058;83;20374;-76
2022/07/03 04:53:40;;;;;;;;;;;;;;;24.28;51.55;101144.03;1703759;83;20369;-76
2022/07/03 04:56:06;;;;;;;;;;;;;;;24.44;51.59;101148.43;1700366;83;20251;-76
2022/07/03 04:58:32;;;;;;;;;;;;;;;24.29;51.47;101147.05;1714244;83;21754;-76
2022/07/03 05:00:58;;;;;;;;;;;;;;;23.99;51.35;101149.13;1704604;83;20265;-76
2022/07/03 05:03:24;;;;;;;;;;;;;;;23.85;51.38;101147.16;1713704;83;20211;-76
2022/07/03 05:05:52;;;;;;;;;;;;;;;24.01;51.54;101151.06;1708436;83;20744;-76
2022/07/03 05:08:19;;;;;;;;;;;;;;;24.31;51.42;101150.36;1693533;83;20469;-77
2022/07/03 05:10:46;;;;;;;;;;;;;;;24.51;51.40;101149.95;1684739;83;22564;-76
2022/07/03 05:13:12;;;;;;;;;;;;;;;24.32;51.25;101148.46;1686124;83;20406;-76
2022/07/03 05:15:38;;;;;;;;;;;;;;;24.21;51.17;101149.32;1680679;83;20205;-76
2022/07/03 05:18:04;;;;;;;;;;;;;;;24.28;51.28;101152.73;1686458;85;20718;-76
2022/07/03 05:20:32;;;;;;;;;;;;;;;24.32;51.21;101149.30;1686342;85;20170;-76
2022/07/03 05:22:58;;;;;;;;;;;;;;;24.38;51.26;101147.52;1687190;83;21368;-76
2022/07/03 05:25:25;;;;;;;;;;;;;;;24.41;51.14;101143.47;1689409;83;20133;-76
2022/07/03 05:27:52;;;;;;;;;;;;;;;24.28;50.98;101150.84;1686959;83;20163;-76
2022/07/03 05:30:19;;;;;;;;;;;;;;;24.19;51.09;101149.58;1675561;84;20515;-76
2022/07/03 05:32:45;;;;;;;;;;;;;;;24.09;51.02;101145.78;1687812;85;20107;-76
2022/07/03 05:35:11;;;;;;;;;;;;;;;24.25;51.01;101151.33;1688851;85;21728;-76
2022/07/03 05:37:37;;;;;;;;;;;;;;;24.44;50.90;101154.72;1688742;85;20774;-76
2022/07/03 05:40:06;;;;;;;;;;;;;;;24.38;50.74;101157.59;1682576;83;20193;-76
2022/07/03 05:42:33;;;;;;;;;;;;;;;24.43;50.75;101144.04;1687957;83;20980;-76
2022/07/03 05:44:59;;;;;;;;;;;;;;;24.70;50.63;101146.50;1688731;83;20452;-76
2022/07/03 05:47:25;;;;;;;;;;;;;;;24.97;50.48;101147.56;1685510;83;21737;-76
2022/07/03 05:49:51;;;;;;;;;;;;;;;25.00;50.22;101142.97;1677496;83;20185;-76
2022/07/03 05:52:17;;;;;;;;;;;;;;;25.23;50.15;101155.63;1685540;83;20739;-76
2022/07/03 05:54:43;;;;;;;;;;;;;;;25.32;49.89;101151.42;1697374;83;20420;-76
2022/07/03 05:57:09;;;;;;;;;;;;;;;24.85;49.59;101150.34;1676342;83;20822;-76
2022/07/03 05:59:34;;;;;;;;;;;;;;;24.87;49.77;101151.48;1688639;85;21782;-76
2022/07/03 06:02:00;;;;;;;;;;;;;;;25.02;49.67;101143.53;1691982;83;20217;-76
2022/07/03 06:04:26;;;;;;;;;;;;;;;25.04;49.40;101139.21;1692615;84;20273;-76
2022/07/03 06:06:54;;;;;;;;;;;;;;;24.96;49.33;101137.70;1680574;84;21173;-76
2022/07/03 06:09:20;;;;;;;;;;;;;;;25.31;49.34;101142.93;1713502;82;20606;-76
2022/07/03 06:11:47;;;;;;;;;;;;;;;25.34;49.04;101132.34;1720649;83;21952;-76
2022/07/03 06:14:13;;;;;;;;;;;;;;;25.24;48.89;101143.10;1713934;83;20178;-76
2022/07/03 06:16:39;;;;;;;;;;;;;;;25.27;48.76;101133.05;1707202;83;20147;-76
2022/07/03 06:19:05;;;;;;;;;;;;;;;25.44;48.57;101136.32;1714895;82;20368;-76
2022/07/03 06:21:32;;;;;;;;;;;;;;;25.02;48.11;101136.71;1702838;83;20170;-76
2022/07/03 06:23:58;;;;;;;;;;;;;;;24.77;48.04;101130.80;1710616;82;22610;-76
2022/07/03 06:26:24;;;;;;;;;;;;;;;24.92;47.99;101137.08;1719306;82;20197;-76
2022/07/03 06:28:49;;;;;;;;;;;;;;;24.90;47.73;101133.24;1716798;83;20449;-76
2022/07/03 06:31:15;;;;;;;;;;;;;;;24.87;47.65;101128.81;1699629;83;20571;-76
2022/07/03 06:33:41;;;;;;;;;;;;;;;24.73;47.38;101126.91;1718560;82;20196;-76
2022/07/03 06:36:07;;;;;;;;;;;;;;;24.58;47.23;101123.89;1717819;83;21730;-76
2022/07/03 06:38:33;;;;;;;;;;;;;;;24.50;47.25;101125.63;1722931;82;21355;-76
2022/07/03 06:40:59;;;;;;;;;;;;;;;24.56;47.12;101116.50;1708325;83;20203;-76
2022/07/03 06:43:24;;;;;;;;;;;;;;;24.74;47.16;101124.45;1721044;83;20470;-76
2022/07/03 06:45:50;;;;;;;;;;;;;;;24.79;47.07;101124.55;1713351;82;21048;-75
2022/07/03 06:48:16;;;;;;;;;;;;;;;25.10;47.10;101122.66;1705666;83;22491;-75
2022/07/03 06:50:42;;;;;;;;;;;;;;;25.29;46.86;101110.42;1721850;83;20250;-76
2022/07/03 06:53:08;;;;;;;;;;;;;;;25.21;46.85;101108.64;1702406;83;20198;-76
2022/07/03 06:55:34;;;;;;;;;;;;;;;25.20;46.71;101115.17;1690898;83;20975;-76
2022/07/03 06:57:59;;;;;;;;;;;;;;;24.96;46.43;101109.05;1716099;83;20240;-76
2022/07/03 07:00:25;;;;;;;;;;;;;;;24.90;46.32;101110.05;1714624;83;21793;-76
2022/07/03 07:02:51;;;;;;;;;;;;;;;24.87;46.41;101111.08;1722903;83;20724;-76
2022/07/03 07:05:17;;;;;;;;;;;;;;;24.73;46.23;101107.80;1722157;82;20211;-76
2022/07/03 07:07:43;;;;;;;;;;;;;;;24.69;46.24;101108.83;1721419;83;20456;-76
2022/07/03 07:10:09;;;;;;;;;;;;;;;24.80;46.24;101107.11;1716799;83;20120;-75
2022/07/03 07:12:35;;;;;;;;;;;;;;;25.01;46.23;101100.12;1714928;82;21842;-76
2022/07/03 07:15:01;;;;;;;;;;;;;;;25.02;45.96;101091.67;1713831;83;20171;-76
2022/07/03 07:17:27;;;;;;;;;;;;;;;25.18;45.98;101088.13;1711925;82;20739;-76
2022/07/03 07:19:55;;;;;;;;;;;;;;;25.25;45.77;101091.52;1689912;82;20483;-76
2022/07/03 07:22:21;;;;;;;;;;;;;;;25.27;45.76;101081.16;1710604;82;20145;-76
2022/07/03 07:24:47;;;;;;;;;;;;;;;25.29;45.70;101094.04;1715824;83;21995;-76
2022/07/03 07:27:13;;;;;;;;;;;;;;;25.33;45.58;101088.34;1717586;83;20291;-76
2022/07/03 07:29:39;;;;;;;;;;;;;;;25.56;45.54;101082.42;1713845;83;20202;-75
2022/07/03 07:32:05;;;;;;;;;;;;;;;25.57;45.20;101086.82;1710879;83;20692;-76
2022/07/03 07:34:31;;;;;;;;;;;;;;;25.59;45.06;101088.75;1714558;83;20166;-75
2022/07/03 07:36:57;;;;;;;;;;;;;;;25.59;44.92;101084.65;1712285;83;21794;-76
2022/07/03 07:39:23;;;;;;;;;;;;;;;25.81;44.85;101089.61;1716274;83;20756;-76
2022/07/03 07:41:48;;;;;;;;;;;;;;;25.38;44.28;101089.50;1713309;83;20210;-76
2022/07/03 07:44:14;;;;;;;;;;;;;;;24.89;44.33;101092.55;1711524;82;20420;-76
2022/07/03 07:46:40;;;;;;;;;;;;;;;24.69;44.42;101082.08;1694486;82;20242;-75
2022/07/03 07:49:06;;;;;;;;;;;;;;;24.62;44.23;101081.41;1707795;83;21772;-76
2022/07/03 07:51:32;;;;;;;;;;;;;;;24.39;44.37;101080.98;1714681;83;20187;-76
2022/07/03 07:53:59;;;;;;;;;;;;;;;24.42;44.54;101078.32;1710898;83;20811;-75
2022/07/03 07:56:25;;;;;;;;;;;;;;;24.77;44.57;101081.69;1717639;83;20454;-75
2022/07/03 07:58:54;;;;;;;;;;;;;;;24.81;44.54;101078.73;1715896;83;20154;-75
2022/07/03 08:06:48;;;;;;;;;;;;;;;24.73;44.46;101075.06;1716034;83;20152;-76
2022/07/03 08:09:14;;;;;;;;;;;;;;;24.54;44.17;101074.98;1713966;83;21722;-76
2022/07/03 08:11:40;;;;;;;;;;;;;;;24.46;44.30;101083.55;1714878;83;20259;-76
2022/07/03 08:14:07;;;;;;;;;;;;;;;24.84;44.27;101074.17;1706085;83;21856;-76
2022/07/03 08:16:35;;;;;;;;;;;;;;;24.99;44.07;101075.80;1710055;83;20148;-75
2022/07/03 08:19:01;;;;;;;;;;;;;;;25.04;43.90;101077.79;1698664;83;20164;-76
2022/07/03 08:21:27;;;;;;;;;;;;;;;25.15;43.84;101079.61;1715259;83;20403;-76
2022/07/03 08:23:53;;;;;;;;;;;;;;;25.60;43.77;101065.82;1711637;82;20222;-76
2022/07/03 08:26:19;;;;;;;;;;;;;;;25.39;43.16;101067.95;1701349;83;21911;-76
2022/07/03 08:28:44;;;;;;;;;;;;;;;25.44;43.04;101066.67;1715450;83;20780;-76
2022/07/03 08:31:10;;;;;;;;;;;;;;;25.52;42.65;101068.98;1706319;83;20199;-76
2022/07/03 08:33:36;;;;;;;;;;;;;;;25.47;42.19;101066.16;1711827;83;20373;-76
2022/07/03 08:36:04;;;;;;;;;;;;;;;25.25;42.26;101064.21;1715700;83;20684;-76
2022/07/03 08:38:33;;;;;;;;;;;;;;;25.11;42.30;101065.63;1713981;83;21881;-76
2022/07/03 08:41:03;;;;;;;;;;;;;;;24.95;42.46;101070.55;1695466;83;20604;-76
2022/07/03 08:43:29;;;;;;;;;;;;;;;24.96;42.61;101061.81;1716486;83;20152;-76
2022/07/03 08:45:56;;;;;;;;;;;;;;;25.24;42.61;101063.91;1714567;83;20420;-76
2022/07/03 08:48:22;;;;;;;;;;;;;;;25.19;42.08;101055.63;1705171;83;20141;-76
2022/07/03 08:50:49;;;;;;;;;;;;;;;24.61;41.79;101056.56;1711758;82;21837;-76
2022/07/03 08:53:15;;;;;;;;;;;;;;;24.40;42.08;101049.09;1694658;83;20086;-76
2022/07/03 08:55:41;;;;;;;;;;;;;;;24.83;42.34;101047.98;1675277;83;20802;-76
2022/07/03 08:58:07;;;;;;;;;;;;;;;25.39;42.21;101043.37;1705151;83;20847;-76
2022/07/03 09:00:33;;;;;;;;;;;;;;;25.64;41.71;101043.75;1697948;83;20183;-76
2022/07/03 09:02:59;;;;;;;;;;;;;;;25.49;41.44;101043.50;1693798;83;21711;-76
2022/07/03 09:05:25;;;;;;;;;;;;;;;25.53;41.17;101047.42;1704063;83;20948;-76
2022/07/03 09:07:51;;;;;;;;;;;;;;;25.21;41.09;101049.40;1694981;83;20191;-76
2022/07/03 09:10:18;;;;;;;;;;;;;;;25.14;41.27;101051.48;1712054;83;20440;-76
2022/07/03 09:12:45;;;;;;;;;;;;;;;25.12;41.30;101059.07;1720679;83;20152;-76
2022/07/03 09:15:11;;;;;;;;;;;;;;;25.23;41.53;101054.06;1708942;83;21892;-76
2022/07/03 09:17:36;;;;;;;;;;;;;;;25.54;41.49;101054.02;1710347;83;20792;-76
2022/07/03 09:20:05;;;;;;;;;;;;;;;25.43;41.50;101056.81;1712324;83;20187;-76
2022/07/03 09:22:32;;;;;;;;;;;;;;;25.42;41.50;101056.52;1716374;83;20503;-76
2022/07/03 09:25:11;;;;;;;;;;;;;;;25.10;41.53;101053.58;1708570;82;20174;-76
2022/07/03 09:27:38;;;;;;;;;;;;;;;25.01;41.74;101049.63;1712813;83;21982;-76
2022/07/03 09:30:06;;;;;;;;;;;;;;;24.84;41.69;101043.62;1704054;83;20401;-76
2022/07/03 09:32:43;;;;;;;;;;;;;;;24.69;41.86;101046.62;1715409;83;20315;-76
2022/07/03 09:35:19;;;;;;;;;;;;;;;24.90;42.06;101039.09;1703069;82;20433;-76
2022/07/03 09:37:57;;;;;;;;;;;;;;;25.12;42.00;101041.89;1705180;83;20596;-77
2022/07/03 09:40:24;;;;;;;;;;;;;;;25.39;41.79;101039.27;1708038;83;21815;-76
2022/07/03 09:43:03;;;;;;;;;;;;;;;25.30;41.61;101034.23;1706097;83;20113;-76
2022/07/03 09:45:48;;;;;;;;;;;;;;;25.70;41.64;101033.16;1714583;83;20290;-77
2022/07/03 09:48:26;;;;;;;;;;;;;;;25.64;41.40;101025.98;1702787;83;20492;-77
2022/07/03 09:51:14;;;;;;;;;;;;;;;25.27;41.42;101011.53;1710814;83;20172;-77
2022/07/03 09:53:44;;;;;;;;;;;;;;;25.06;41.50;101008.75;1716485;83;21827;-77
2022/07/03 09:56:10;;;;;;;;;;;;;;;25.34;41.89;101000.42;1712288;83;20204;-77
2022/07/03 09:58:36;;;;;;;;;;;;;;;26.07;41.85;100995.87;1696161;84;20259;-77
2022/07/03 10:01:22;;;;;;;;;;;;;;;26.27;41.21;100990.66;1669190;84;20498;-78
2022/07/03 10:03:48;;;;;;;;;;;;;;;26.22;41.11;100989.77;1693887;84;20362;-77
2022/07/03 10:06:14;;;;;;;;;;;;;;;26.14;40.92;100991.02;1697267;84;21806;-77
2022/07/03 10:08:40;;;;;;;;;;;;;;;25.92;40.89;100987.52;1696115;84;20245;-77
2022/07/03 10:11:06;;;;;;;;;;;;;;;25.49;40.80;100984.77;1667114;84;20315;-77
2022/07/03 10:13:32;;;;;;;;;;;;;;;25.19;40.95;100994.20;1660703;86;20545;-78
2022/07/03 10:15:57;;;;;;;;;;;;;;;25.52;41.12;100996.05;1657740;86;20273;-78
2022/07/03 10:18:23;;;;;;;;;;;;;;;25.76;40.97;100993.88;1650178;85;22621;-78
2022/07/03 10:20:50;;;;;;;;;;;;;;;25.71;40.68;100983.73;1648401;86;20224;-78
2022/07/03 10:23:16;;;;;;;;;;;;;;;25.99;40.81;100978.58;1650085;85;20120;-78
2022/07/03 10:25:42;;;;;;;;;;;;;;;26.33;40.75;100984.14;1692187;82;20452;-78
2022/07/03 10:28:11;;;;;;;;;;;;;;;26.45;40.48;100977.68;1689346;82;20172;-78
2022/07/03 10:30:37;;;;;;;;;;;;;;;26.39;40.03;100972.69;1680082;84;21827;-78
2022/07/03 10:33:03;;;;;;;;;;;;;;;26.38;39.80;100974.33;1695988;82;20786;-78
2022/07/03 10:35:32;;;;;;;;;;;;;;;26.32;39.67;100975.64;1697639;84;20276;-78
2022/07/03 10:38:02;;;;;;;;;;;;;;;26.43;39.61;100975.19;1699441;84;20537;-78
2022/07/03 10:46:11;;;;;;;;;;;;;;;26.65;39.00;100971.83;1693715;84;20180;-78
2022/07/03 10:48:57;;;;;;;;;;;;;;;26.30;39.23;100967.42;1681764;84;20165;-78
2022/07/03 10:51:23;;;;;;;;;;;;;;;26.03;39.30;100978.35;1698472;84;20492;-78
2022/07/03 10:53:49;;;;;;;;;;;;;;;25.72;39.42;100970.91;1699430;84;20835;-78
2022/07/03 10:56:15;;;;;;;;;;;;;;;25.69;39.57;100961.28;1699093;84;22452;-78
2022/07/03 10:58:57;;;;;;;;;;;;;;;25.59;39.47;100954.88;1699248;84;20271;-78
2022/07/03 11:01:31;;;;;;;;;;;;;;;25.80;39.63;100949.93;1699224;84;20153;-78
2022/07/03 11:04:00;;;;;;;;;;;;;;;25.80;39.13;100949.93;1702103;84;20462;-78
2022/07/03 11:06:49;;;;;;;;;;;;;;;25.45;39.14;100939.39;1696257;84;20129;-78
2022/07/03 11:09:15;;;;;;;;;;;;;;;25.46;39.30;100941.59;1698898;84;21743;-78
2022/07/03 11:11:57;;;;;;;;;;;;;;;25.32;39.45;100944.70;1704065;84;20804;-78
2022/07/03 11:14:29;;;;;;;;;;;;;;;25.34;39.49;100935.70;1704494;84;20188;-78
2022/07/03 11:17:19;;;;;;;;;;;;;;;25.57;39.51;100930.56;1704671;84;20477;-79
2022/07/03 11:20:23;;;;;;;;;;;;;;;25.76;39.51;100920.09;1702354;83;20445;-78
2022/07/03 11:22:16;;;;;;;;;;;;;;;25.97;39.38;100928.78;1707065;82;21786;-78
2022/07/03 11:24:44;;;;;;;;;;;;;;;26.25;39.36;100924.44;1704384;84;20172;-79
2022/07/03 11:27:21;;;;;;;;;;;;;;;26.30;39.16;100918.19;1704516;84;20177;-78
2022/07/03 11:29:55;;;;;;;;;;;;;;;26.09;39.19;100913.06;1704708;84;20441;-78
2022/07/03 11:32:44;;;;;;;;;;;;;;;26.34;39.28;100912.48;1704701;84;20149;-78
2022/07/03 11:35:30;;;;;;;;;;;;;;;26.54;39.23;100919.47;1704070;84;22425;-78
2022/07/03 11:37:56;;;;;;;;;;;;;;;26.90;39.10;100920.57;1704545;84;20170;-78
2022/07/03 11:40:24;;;;;;;;;;;;;;;26.76;38.63;100903.77;1651410;84;20344;-78
2022/07/03 11:42:50;;;;;;;;;;;;;;;26.63;38.26;100907.51;1704584;84;20403;-78
2022/07/03 11:45:15;;;;;;;;;;;;;;;26.80;38.36;100904.89;1704614;84;20184;-79
2022/07/03 11:47:41;;;;;;;;;;;;;;;27.17;38.34;100902.09;1704120;84;21835;-78
2022/07/03 11:50:07;;;;;;;;;;;;;;;27.41;38.14;100900.28;1704721;84;20248;-78
2022/07/03 11:52:33;;;;;;;;;;;;;;;27.24;38.03;100912.25;1704384;84;20157;-78
2022/07/03 11:54:59;;;;;;;;;;;;;;;26.75;37.78;100906.75;1704421;84;21243;-78
2022/07/03 11:57:26;;;;;;;;;;;;;;;26.69;38.13;100902.34;1704627;84;20192;-78
2022/07/03 11:59:51;;;;;;;;;;;;;;;26.75;38.05;100899.37;1704541;84;21839;-78
2022/07/03 12:02:17;;;;;;;;;;;;;;;26.88;38.13;100913.72;1684076;84;20664;-78
2022/07/03 12:04:43;;;;;;;;;;;;;;;26.83;38.16;100909.03;1667203;84;20206;-78
2022/07/03 12:07:09;;;;;;;;;;;;;;;26.78;38.23;100907.58;1676372;84;20471;-78
2022/07/03 12:09:36;;;;;;;;;;;;;;;26.57;38.35;100901.70;1655263;84;20157;-78
2022/07/03 12:12:04;;;;;;;;;;;;;;;26.56;38.54;100897.34;1687110;84;21848;-78
2022/07/03 12:14:47;;;;;;;;;;;;;;;26.58;38.57;100892.41;1690974;82;21422;-79
2022/07/03 12:17:21;;;;;;;;;;;;;;;26.88;38.66;100898.13;1680113;82;20128;-79
2022/07/03 12:19:53;;;;;;;;;;;;;;;27.05;38.52;100898.76;1685471;82;21101;-79
2022/07/03 12:22:32;;;;;;;;;;;;;;;26.76;38.38;100894.72;1689950;83;20420;-79
2022/07/03 12:25:01;;;;;;;;;;;;;;;26.62;38.46;100890.80;1693054;84;22967;-79
2022/07/03 12:27:28;;;;;;;;;;;;;;;26.59;38.57;100884.49;1689155;82;20109;-79
2022/07/03 12:29:54;;;;;;;;;;;;;;;26.51;38.61;100883.61;1660775;85;20120;-78
2022/07/03 12:32:19;;;;;;;;;;;;;;;26.49;38.66;100881.69;1687514;84;20773;-79
2022/07/03 12:34:45;;;;;;;;;;;;;;;26.58;38.72;100882.83;1689215;82;20395;-78
2022/07/03 12:37:11;;;;;;;;;;;;;;;26.46;38.71;100884.95;1689384;84;21884;-79
2022/07/03 12:39:47;;;;;;;;;;;;;;;26.41;38.77;100881.63;1679067;83;20868;-79
2022/07/03 12:42:20;;;;;;;;;;;;;;;26.44;38.85;100877.53;1689449;84;20164;-79
2022/07/03 12:44:59;;;;;;;;;;;;;;;26.39;38.99;100877.52;1681888;84;20423;-79
2022/07/03 12:47:26;;;;;;;;;;;;;;;26.15;38.94;100875.09;1696185;84;20375;-79
2022/07/03 12:49:58;;;;;;;;;;;;;;;26.26;39.07;100863.19;1703411;84;21833;-78
2022/07/03 12:52:24;;;;;;;;;;;;;;;26.23;38.96;100868.36;1691911;83;20161;-79
2022/07/03 12:54:50;;;;;;;;;;;;;;;26.09;38.96;100863.84;1700102;84;20815;-79